Time;durP1;ratioP1;P1;durP2;ratioP2;P2;SDS_P1;SDS_P2;PMS_P1;PMS_P2;Temp;Humidity;BMP_temperature;BMP_pressure;BME280_temperature;BME280_humidity;BME280_pressure;Samples;Min_cycle;Max_cycle;Signal;HPM_P1;HPM_P2
2021/07/31 00:02:26;;;;;;;15.48;5.70;;;;;;;15.53;91.35;100531.97;4977989;28;20050;-72
2021/07/31 00:04:54;;;;;;;13.52;5.90;;;;;;;15.52;91.09;100532.94;4978874;28;20338;-72
2021/07/31 00:07:22;;;;;;;15.05;6.30;;;;;;;15.56;90.44;100529.13;4979964;28;20061;-72
2021/07/31 00:09:50;;;;;;;9.52;5.25;;;;;;;15.57;90.60;100529.03;4980942;28;20342;-71
2021/07/31 00:12:18;;;;;;;10.48;5.15;;;;;;;15.56;91.52;100537.19;4980074;28;20042;-72
2021/07/31 00:14:47;;;;;;;10.65;5.00;;;;;;;15.41;93.08;100526.38;4978621;28;20103;-71
2021/07/31 00:17:15;;;;;;;11.75;5.53;;;;;;;15.39;93.88;100528.28;4980610;28;20062;-71
2021/07/31 00:19:43;;;;;;;12.57;5.85;;;;;;;15.34;93.68;100521.41;4980284;28;20066;-70
2021/07/31 00:22:11;;;;;;;20.73;6.45;;;;;;;15.26;94.27;100525.41;4979623;28;20098;-73
2021/07/31 00:24:38;;;;;;;10.70;5.43;;;;;;;15.28;94.31;100526.19;4982913;28;20129;-72
2021/07/31 00:27:06;;;;;;;15.98;6.13;;;;;;;15.31;94.15;100526.00;4976598;28;20066;-72
2021/07/31 00:29:34;;;;;;;13.20;6.70;;;;;;;15.29;94.40;100527.94;4981381;28;20070;-72
2021/07/31 00:32:03;;;;;;;12.18;5.03;;;;;;;15.28;94.47;100519.94;4981411;28;20141;-70
2021/07/31 00:34:31;;;;;;;11.98;4.75;;;;;;;15.26;94.27;100519.19;4977428;28;20361;-71
2021/07/31 00:36:59;;;;;;;14.35;5.28;;;;;;;15.20;95.33;100517.69;4982820;28;20073;-71
2021/07/31 00:39:28;;;;;;;9.27;4.90;;;;;;;15.18;95.42;100519.59;4976700;28;20065;-70
2021/07/31 00:41:56;;;;;;;13.20;5.22;;;;;;;15.13;95.81;100525.22;4978680;28;20062;-70
2021/07/31 00:44:23;;;;;;;14.75;5.28;;;;;;;15.15;96.10;100519.75;4980717;28;20054;-73
2021/07/31 00:46:52;;;;;;;11.82;5.28;;;;;;;15.18;95.23;100522.28;4977020;28;20094;-73
2021/07/31 00:49:22;;;;;;;11.20;5.22;;;;;;;15.17;94.52;100528.63;4983763;28;20062;-73
2021/07/31 00:51:50;;;;;;;9.32;4.75;;;;;;;15.15;93.79;100535.03;4975891;28;20058;-73
2021/07/31 00:54:18;;;;;;;10.88;4.90;;;;;;;15.13;95.11;100537.81;4981157;28;20125;-73
2021/07/31 00:56:46;;;;;;;9.25;4.13;;;;;;;15.10;93.84;100527.22;4975657;28;20193;-74
2021/07/31 00:59:14;;;;;;;10.40;4.43;;;;;;;15.04;93.85;100532.94;4975590;28;20062;-73
2021/07/31 01:01:42;;;;;;;7.88;4.40;;;;;;;14.98;94.74;100530.59;4980209;28;20085;-73
2021/07/31 01:04:11;;;;;;;10.07;4.78;;;;;;;14.92;95.33;100538.03;4977339;28;20149;-73
2021/07/31 01:06:41;;;;;;;10.85;5.20;;;;;;;14.89;95.87;100532.81;4978605;28;20389;-73
2021/07/31 01:09:09;;;;;;;9.10;4.90;;;;;;;14.88;96.31;100528.44;4975575;28;20492;-72
2021/07/31 01:11:37;;;;;;;10.10;4.82;;;;;;;14.92;96.63;100529.13;4982168;28;20073;-73
2021/07/31 01:14:06;;;;;;;15.23;6.10;;;;;;;14.90;97.03;100523.84;4984887;28;20062;-76
2021/07/31 01:16:33;;;;;;;11.05;5.10;;;;;;;14.94;97.65;100520.00;4980733;28;20073;-75
2021/07/31 01:19:01;;;;;;;13.23;5.50;;;;;;;14.98;98.61;100534.13;4983836;28;20430;-72
2021/07/31 01:21:39;;;;;;;15.18;5.70;;;;;;;14.85;100.00;100525.03;4982242;28;20070;-72
2021/07/31 01:24:10;;;;;;;11.50;5.43;;;;;;;14.74;100.00;100528.28;4981863;28;20105;-70
2021/07/31 01:26:40;;;;;;;12.10;5.25;;;;;;;14.66;100.00;100520.66;4986276;28;20492;-71
2021/07/31 01:29:09;;;;;;;9.98;4.35;;;;;;;14.63;100.00;100522.66;4981252;28;20094;-72
2021/07/31 01:31:38;;;;;;;13.93;4.50;;;;;;;14.59;100.00;100529.97;4985194;28;20139;-72
2021/07/31 01:34:06;;;;;;;12.32;4.78;;;;;;;14.65;100.00;100531.50;4984774;28;20058;-73
2021/07/31 01:36:34;;;;;;;10.80;4.47;;;;;;;14.61;100.00;100541.53;4980055;28;20066;-74
2021/07/31 01:39:04;;;;;;;12.90;5.50;;;;;;;14.61;100.00;100538.84;4981162;28;20137;-69
2021/07/31 01:41:32;;;;;;;15.10;5.53;;;;;;;14.60;100.00;100538.94;4980387;28;20371;-70
2021/07/31 01:44:00;;;;;;;13.23;5.30;;;;;;;14.59;100.00;100539.88;4983912;28;20093;-70
2021/07/31 01:46:28;;;;;;;12.45;5.38;;;;;;;14.55;100.00;100537.31;4981546;28;20070;-70
2021/07/31 01:48:56;;;;;;;14.80;5.15;;;;;;;14.57;100.00;100546.16;4982855;28;20062;-73
2021/07/31 01:51:24;;;;;;;11.95;5.47;;;;;;;14.57;100.00;100545.28;4981526;28;20116;-71
2021/07/31 01:53:52;;;;;;;11.52;5.63;;;;;;;14.59;100.00;100540.72;4982137;28;20211;-73
2021/07/31 01:56:21;;;;;;;14.13;5.75;;;;;;;14.60;100.00;100531.72;4986506;28;20160;-73
2021/07/31 01:58:49;;;;;;;13.98;5.78;;;;;;;14.65;100.00;100547.59;4979303;28;20154;-73
2021/07/31 02:01:17;;;;;;;18.00;6.22;;;;;;;14.70;100.00;100559.81;4983816;28;20492;-74
2021/07/31 02:03:45;;;;;;;16.25;7.00;;;;;;;14.72;100.00;100549.00;4982030;28;20169;-71
2021/07/31 02:06:13;;;;;;;16.67;6.90;;;;;;;14.68;100.00;100545.63;4980473;28;20152;-71
2021/07/31 02:08:41;;;;;;;16.50;6.63;;;;;;;14.75;100.00;100551.53;4983923;28;20178;-72
2021/07/31 02:11:10;;;;;;;17.67;6.50;;;;;;;14.72;100.00;100563.28;4981295;28;20057;-72
2021/07/31 02:13:39;;;;;;;18.10;6.88;;;;;;;14.73;100.00;100548.91;4980770;28;20094;-71
2021/07/31 02:16:07;;;;;;;14.15;6.65;;;;;;;14.76;100.00;100564.00;4984066;28;20063;-72
2021/07/31 02:18:35;;;;;;;20.08;7.65;;;;;;;14.74;100.00;100561.41;4980110;28;20457;-75
2021/07/31 02:21:03;;;;;;;14.98;7.85;;;;;;;14.75;100.00;100563.13;4983346;28;20153;-73
2021/07/31 02:23:30;;;;;;;16.15;6.85;;;;;;;14.77;100.00;100559.50;4981462;28;20070;-71
2021/07/31 02:25:58;;;;;;;16.13;7.40;;;;;;;14.76;100.00;100553.25;4982973;28;20069;-69
2021/07/31 02:28:26;;;;;;;17.58;7.90;;;;;;;14.75;100.00;100562.28;4980003;28;20062;-71
2021/07/31 02:30:55;;;;;;;18.60;8.07;;;;;;;14.79;100.00;100561.13;4979164;28;20350;-73
2021/07/31 02:33:23;;;;;;;16.15;7.60;;;;;;;14.80;100.00;100572.78;4983514;28;20677;-71
2021/07/31 02:35:50;;;;;;;15.38;7.78;;;;;;;14.75;100.00;100552.38;4982984;28;20195;-72
2021/07/31 02:38:18;;;;;;;18.42;8.60;;;;;;;14.75;100.00;100568.50;4979361;28;20097;-71
2021/07/31 02:40:47;;;;;;;16.77;8.00;;;;;;;14.67;100.00;100567.19;4981272;28;20062;-72
2021/07/31 02:43:15;;;;;;;19.33;7.85;;;;;;;14.66;100.00;100568.13;4982765;28;20072;-72
2021/07/31 02:45:43;;;;;;;14.73;7.53;;;;;;;14.65;100.00;100571.78;4982560;28;20168;-73
2021/07/31 02:48:12;;;;;;;16.70;7.32;;;;;;;14.68;100.00;100583.22;4981711;28;20070;-72
2021/07/31 02:50:40;;;;;;;21.77;8.70;;;;;;;14.67;99.93;100578.78;4982426;28;20098;-72
2021/07/31 02:53:07;;;;;;;18.83;7.82;;;;;;;14.65;100.00;100583.38;4982635;28;20061;-73
2021/07/31 02:55:35;;;;;;;15.50;7.32;;;;;;;14.70;99.71;100575.94;4977879;28;20070;-73
2021/07/31 02:58:03;;;;;;;16.70;7.05;;;;;;;14.70;100.00;100575.94;4982467;28;20046;-71
2021/07/31 03:00:31;;;;;;;15.07;7.18;;;;;;;14.67;99.57;100581.47;4982725;28;20066;-72
2021/07/31 03:02:59;;;;;;;13.18;6.45;;;;;;;14.71;98.96;100574.09;4980008;28;20085;-71
2021/07/31 03:05:29;;;;;;;15.55;7.72;;;;;;;14.67;98.52;100573.41;4983277;28;20595;-71
2021/07/31 03:07:57;;;;;;;11.88;6.45;;;;;;;14.69;98.36;100571.53;4983779;28;20124;-72
2021/07/31 03:10:24;;;;;;;13.80;7.07;;;;;;;14.65;98.65;100566.41;4981997;28;20066;-71
2021/07/31 03:12:52;;;;;;;20.40;7.47;;;;;;;14.63;99.53;100568.31;4980094;28;20066;-71
2021/07/31 03:15:20;;;;;;;19.00;7.43;;;;;;;14.69;98.43;100578.69;4981591;28;20050;-72
2021/07/31 03:17:48;;;;;;;13.27;6.00;;;;;;;14.71;98.17;100571.41;4981361;28;20058;-72
2021/07/31 03:20:16;;;;;;;13.20;6.57;;;;;;;14.67;96.94;100580.59;4979274;28;20058;-72
2021/07/31 03:22:45;;;;;;;11.90;6.20;;;;;;;14.62;97.33;100577.31;4981923;28;21543;-71
2021/07/31 03:25:13;;;;;;;14.60;6.35;;;;;;;14.60;96.28;100577.38;4981187;28;20149;-71
2021/07/31 03:27:41;;;;;;;12.50;7.10;;;;;;;14.57;96.84;100581.06;4982952;28;20116;-71
2021/07/31 03:30:09;;;;;;;14.85;7.32;;;;;;;14.53;97.13;100592.91;4982523;28;20058;-72
2021/07/31 03:32:37;;;;;;;12.43;6.05;;;;;;;14.53;97.62;100584.84;4978051;28;20493;-72
2021/07/31 03:35:06;;;;;;;14.68;6.90;;;;;;;14.56;97.67;100586.53;4985358;28;20050;-71
2021/07/31 03:37:33;;;;;;;12.45;6.85;;;;;;;14.60;97.69;100598.00;4978646;28;20070;-71
2021/07/31 03:40:03;;;;;;;12.18;6.63;;;;;;;14.60;97.53;100596.16;4982252;28;20507;-71
2021/07/31 03:42:31;;;;;;;15.88;7.75;;;;;;;14.59;98.01;100590.88;4980753;28;20088;-70
2021/07/31 03:44:59;;;;;;;17.48;7.47;;;;;;;14.54;97.29;100591.97;4980147;28;20051;-70
2021/07/31 03:47:27;;;;;;;15.50;6.50;;;;;;;14.60;97.03;100593.50;4985164;28;20493;-71
2021/07/31 03:49:54;;;;;;;13.55;6.38;;;;;;;14.59;97.19;100601.63;4978435;28;20117;-70
2021/07/31 03:52:22;;;;;;;18.13;6.90;;;;;;;14.59;96.49;100604.31;4980164;28;20605;-71
2021/07/31 03:54:50;;;;;;;13.35;5.43;;;;;;;14.60;96.48;100598.84;4981935;28;20077;-70
2021/07/31 03:57:19;;;;;;;12.60;5.85;;;;;;;14.60;96.48;100603.38;4981235;28;20046;-71
2021/07/31 03:59:47;;;;;;;14.15;6.35;;;;;;;14.59;96.59;100609.66;4980620;28;20050;-71
2021/07/31 04:02:15;;;;;;;11.25;5.78;;;;;;;14.65;95.85;100614.72;4978998;28;20077;-71
2021/07/31 04:04:43;;;;;;;10.98;5.40;;;;;;;14.64;95.47;100611.19;4979696;28;20402;-71
2021/07/31 04:07:10;;;;;;;12.70;5.00;;;;;;;14.64;93.97;100610.31;4981610;28;20094;-70
2021/07/31 04:09:38;;;;;;;12.63;5.07;;;;;;;14.64;93.54;100619.25;4979143;28;20062;-70
2021/07/31 04:12:07;;;;;;;9.52;4.60;;;;;;;14.63;94.07;100627.38;4983910;28;20345;-70
2021/07/31 04:14:36;;;;;;;9.50;4.65;;;;;;;14.62;93.97;100625.63;4978803;28;20062;-70
2021/07/31 04:17:04;;;;;;;13.82;4.78;;;;;;;14.62;93.88;100617.56;4982019;28;20077;-70
2021/07/31 04:19:32;;;;;;;10.50;5.03;;;;;;;14.63;93.43;100625.56;4982653;28;20101;-70
2021/07/31 04:22:00;;;;;;;10.25;4.28;;;;;;;14.59;93.43;100632.00;4978551;28;20070;-70
2021/07/31 04:24:27;;;;;;;8.63;4.13;;;;;;;14.65;92.83;100634.38;4983252;28;20124;-70
2021/07/31 04:26:56;;;;;;;9.07;4.18;;;;;;;14.72;92.71;100629.56;4977528;28;20496;-70
2021/07/31 04:29:26;;;;;;;8.88;4.72;;;;;;;14.77;92.63;100630.19;4979370;28;20066;-70
2021/07/31 04:31:55;;;;;;;9.25;4.47;;;;;;;14.74;92.15;100633.94;4972986;28;20066;-70
2021/07/31 04:34:24;;;;;;;11.60;4.28;;;;;;;14.78;92.43;100640.00;4978782;28;20070;-70
2021/07/31 04:36:51;;;;;;;10.25;4.13;;;;;;;14.79;91.13;100639.03;4980390;28;20425;-70
2021/07/31 04:39:19;;;;;;;11.18;4.70;;;;;;;14.79;92.63;100646.22;4975861;28;20091;-71
2021/07/31 04:41:47;;;;;;;9.95;4.78;;;;;;;14.75;93.06;100642.84;4980433;28;20066;-70
2021/07/31 04:44:15;;;;;;;8.02;4.40;;;;;;;14.77;93.72;100643.63;4981866;28;20070;-70
2021/07/31 04:46:43;;;;;;;9.85;5.13;;;;;;;14.75;94.30;100646.38;4982660;28;20077;-69
2021/07/31 04:49:12;;;;;;;14.82;5.15;;;;;;;14.73;94.57;100650.13;4988908;28;20058;-69
2021/07/31 04:51:40;;;;;;;13.85;5.30;;;;;;;14.76;94.64;100649.94;4980022;28;20085;-69
2021/07/31 04:54:09;;;;;;;9.73;4.93;;;;;;;14.79;95.56;100657.84;4980019;28;20088;-71
2021/07/31 04:56:37;;;;;;;11.32;6.10;;;;;;;14.84;95.46;100663.81;4981885;28;20583;-70
2021/07/31 04:59:07;;;;;;;10.75;5.00;;;;;;;14.84;94.97;100668.34;4983676;28;20137;-70
2021/07/31 05:01:36;;;;;;;11.60;5.25;;;;;;;14.90;94.85;100666.19;4985635;28;20066;-70
2021/07/31 05:04:07;;;;;;;9.88;5.07;;;;;;;14.86;95.37;100674.50;4981571;28;20066;-70
2021/07/31 05:06:39;;;;;;;12.57;6.05;;;;;;;14.82;96.38;100675.63;4984429;28;20361;-69
2021/07/31 05:09:13;;;;;;;10.40;5.70;;;;;;;14.82;96.83;100676.47;4979682;28;20061;-70
2021/07/31 05:11:44;;;;;;;15.85;5.32;;;;;;;14.87;95.75;100665.50;4982756;28;20058;-71
2021/07/31 05:14:18;;;;;;;22.80;5.57;;;;;;;14.86;95.52;100678.03;4985341;28;20157;-72
2021/07/31 05:16:47;;;;;;;10.23;5.18;;;;;;;14.83;95.66;100677.34;4980390;28;20160;-71
2021/07/31 05:19:15;;;;;;;9.65;5.05;;;;;;;14.82;95.93;100687.22;4983990;28;20054;-70
2021/07/31 05:21:47;;;;;;;13.20;4.57;;;;;;;14.81;94.79;100682.78;4983622;28;20110;-70
2021/07/31 05:24:15;;;;;;;11.32;4.80;;;;;;;14.81;94.56;100692.66;4983088;28;20076;-71
2021/07/31 05:26:45;;;;;;;11.45;4.97;;;;;;;14.85;94.69;100687.06;4984456;28;20047;-71
2021/07/31 05:29:13;;;;;;;9.98;4.85;;;;;;;14.84;94.38;100693.38;4982431;28;20066;-70
2021/07/31 05:31:44;;;;;;;8.77;4.70;;;;;;;14.84;93.23;100693.38;4982555;28;20058;-71
2021/07/31 05:34:15;;;;;;;11.55;4.68;;;;;;;14.87;93.26;100690.53;4982465;28;20334;-72
2021/07/31 05:36:43;;;;;;;10.07;4.53;;;;;;;14.92;92.59;100698.38;4983934;28;20090;-71
2021/07/31 05:39:14;;;;;;;7.63;4.20;;;;;;;14.93;92.61;100700.09;4984858;28;20156;-71
2021/07/31 05:41:42;;;;;;;9.88;5.65;;;;;;;14.94;91.16;100688.41;4981083;28;20058;-71
2021/07/31 05:44:10;;;;;;;9.27;4.88;;;;;;;15.00;91.69;100695.25;4985361;28;20062;-73
2021/07/31 05:46:41;;;;;;;11.23;4.38;;;;;;;14.98;91.62;100707.91;4979390;28;20063;-72
2021/07/31 05:49:11;;;;;;;11.90;4.75;;;;;;;15.00;92.13;100697.94;4984763;28;20046;-73
2021/07/31 05:51:39;;;;;;;11.43;4.63;;;;;;;15.00;91.76;100709.59;4983325;28;20038;-71
2021/07/31 05:54:07;;;;;;;8.48;4.35;;;;;;;15.04;92.35;100711.16;4980937;28;20393;-72
2021/07/31 05:56:37;;;;;;;7.93;4.32;;;;;;;15.05;92.15;100715.59;4982454;28;20132;-72
2021/07/31 05:59:08;;;;;;;8.50;4.57;;;;;;;15.06;93.21;100701.19;4982034;28;20062;-72
2021/07/31 06:01:36;;;;;;;8.73;4.53;;;;;;;14.98;94.34;100708.78;4982881;28;20445;-74
2021/07/31 06:04:08;;;;;;;8.02;4.10;;;;;;;15.03;93.41;100703.16;4982106;28;20081;-73
2021/07/31 06:06:36;;;;;;;9.25;3.88;;;;;;;15.14;93.02;100698.09;4982063;28;20597;-73
2021/07/31 06:09:04;;;;;;;9.65;4.60;;;;;;;15.23;91.94;100700.28;4983951;28;20066;-72
2021/07/31 06:11:32;;;;;;;12.35;4.65;;;;;;;15.37;91.89;100707.59;4979606;28;20055;-73
2021/07/31 06:14:02;;;;;;;7.05;3.60;;;;;;;15.43;91.12;100717.16;4984028;28;20374;-73
2021/07/31 06:16:31;;;;;;;7.85;3.58;;;;;;;15.47;91.22;100713.34;4981540;28;20045;-71
2021/07/31 06:18:59;;;;;;;10.00;3.58;;;;;;;15.49;91.00;100711.44;4980262;28;20085;-73
2021/07/31 06:21:27;;;;;;;8.90;3.72;;;;;;;15.50;90.94;100714.03;4981512;28;20331;-71
2021/07/31 06:23:57;;;;;;;11.05;3.78;;;;;;;15.54;90.96;100721.94;4980009;28;20117;-72
2021/07/31 06:26:25;;;;;;;7.53;3.20;;;;;;;15.54;91.58;100720.13;4981364;28;20688;-70
2021/07/31 06:28:53;;;;;;;8.43;3.58;;;;;;;15.52;91.53;100716.66;4984027;28;20050;-71
2021/07/31 06:31:22;;;;;;;9.77;3.30;;;;;;;15.53;92.03;100728.28;4978825;28;20070;-72
2021/07/31 06:33:51;;;;;;;10.13;3.85;;;;;;;15.54;91.66;100730.03;4985507;28;20058;-70
2021/07/31 06:36:19;;;;;;;9.43;3.97;;;;;;;15.64;92.67;100728.56;4978776;28;20303;-70
2021/07/31 06:38:47;;;;;;;7.43;3.30;;;;;;;15.73;90.91;100736.09;4982333;28;20156;-70
2021/07/31 06:41:16;;;;;;;10.73;4.07;;;;;;;15.75;91.04;100726.19;4982500;28;20054;-72
2021/07/31 06:43:45;;;;;;;9.82;4.30;;;;;;;15.72;91.21;100733.53;4981606;28;20053;-72
2021/07/31 06:46:14;;;;;;;9.00;3.33;;;;;;;15.79;90.34;100727.75;4984482;28;20083;-71
2021/07/31 06:48:44;;;;;;;9.18;4.30;;;;;;;15.85;89.93;100723.84;4979320;28;20286;-72
2021/07/31 06:51:12;;;;;;;7.97;3.15;;;;;;;15.93;89.64;100728.81;4983448;28;20058;-71
2021/07/31 06:53:40;;;;;;;8.15;3.38;;;;;;;16.02;88.18;100718.38;4979539;28;20445;-73
2021/07/31 06:56:08;;;;;;;11.98;3.95;;;;;;;16.13;88.79;100731.22;4979590;28;20058;-71
2021/07/31 06:58:35;;;;;;;10.10;4.10;;;;;;;16.11;88.74;100726.91;4979540;28;20475;-70
2021/07/31 07:01:08;;;;;;;8.10;3.70;;;;;;;16.03;89.33;100732.72;4979205;28;20114;-71
2021/07/31 07:03:36;;;;;;;7.10;3.58;;;;;;;15.94;89.73;100750.25;4982988;28;20129;-71
2021/07/31 07:06:07;;;;;;;10.13;3.72;;;;;;;15.68;94.53;100751.63;4982621;28;20150;-70
2021/07/31 07:08:36;;;;;;;7.05;3.72;;;;;;;15.27;96.52;100754.72;4978945;28;20241;-69
2021/07/31 07:11:05;;;;;;;10.13;4.38;;;;;;;15.26;98.70;100755.72;4985147;28;20069;-70
2021/07/31 07:13:38;;;;;;;8.65;3.90;;;;;;;15.29;98.82;100761.78;4978753;28;20481;-71
2021/07/31 07:16:07;;;;;;;13.68;4.07;;;;;;;15.37;99.12;100764.06;4983339;28;20098;-71
2021/07/31 07:18:35;;;;;;;8.65;3.97;;;;;;;15.38;99.61;100764.94;4980376;28;20093;-71
2021/07/31 07:21:06;;;;;;;10.32;4.15;;;;;;;15.54;99.05;100763.16;4981529;28;20456;-72
2021/07/31 07:23:34;;;;;;;12.73;4.63;;;;;;;15.41;99.78;100771.03;4984617;28;20120;-72
2021/07/31 07:26:09;;;;;;;12.88;5.95;;;;;;;15.39;99.50;100775.63;4979051;28;20066;-72
2021/07/31 07:28:38;;;;;;;10.85;5.22;;;;;;;15.44;100.00;100768.16;4981869;28;20062;-73
2021/07/31 07:31:09;;;;;;;9.98;4.72;;;;;;;15.74;100.00;100762.06;4982490;28;20043;-72
2021/07/31 07:33:37;;;;;;;8.98;4.13;;;;;;;16.68;97.33;100764.00;4980315;28;20066;-71
2021/07/31 07:36:12;;;;;;;10.20;4.80;;;;;;;16.79;95.36;100773.19;4982580;28;20073;-72
2021/07/31 07:38:40;;;;;;;8.88;4.65;;;;;;;16.60;96.63;100773.41;4979415;28;20065;-71
2021/07/31 07:41:09;;;;;;;11.88;4.43;;;;;;;16.10;97.22;100795.13;4985069;28;20066;-72
2021/07/31 07:43:37;;;;;;;13.30;5.38;;;;;;;15.92;99.01;100787.13;4982083;28;20050;-69
2021/07/31 07:46:05;;;;;;;10.63;4.20;;;;;;;15.80;99.45;100788.69;4981197;28;20066;-70
2021/07/31 07:48:33;;;;;;;8.85;3.78;;;;;;;15.43;99.99;100793.31;4978363;28;20358;-70
2021/07/31 07:51:01;;;;;;;9.63;4.35;;;;;;;15.42;99.53;100810.38;4979594;28;20445;-71
2021/07/31 07:53:31;;;;;;;11.68;4.70;;;;;;;15.61;100.00;100810.28;4981782;28;20097;-70
2021/07/31 07:55:58;;;;;;;10.50;4.40;;;;;;;15.75;100.00;100804.19;4980599;28;20062;-71
2021/07/31 07:58:26;;;;;;;9.15;4.15;;;;;;;16.04;100.00;100804.44;4981731;28;20113;-72
2021/07/31 08:00:54;;;;;;;12.90;5.18;;;;;;;15.95;99.31;100811.16;4979115;28;20066;-72
2021/07/31 08:03:22;;;;;;;9.35;4.40;;;;;;;15.86;99.90;100819.75;4978740;28;20464;-71
2021/07/31 08:05:50;;;;;;;12.57;4.97;;;;;;;15.84;100.00;100813.59;4982871;28;20069;-72
2021/07/31 08:08:21;;;;;;;12.55;5.13;;;;;;;15.90;100.00;100821.31;4977825;28;20058;-71
2021/07/31 08:10:52;;;;;;;11.85;4.75;;;;;;;15.74;100.00;100820.38;4980855;28;20132;-70
2021/07/31 08:13:20;;;;;;;12.98;5.32;;;;;;;15.74;100.00;100825.78;4980439;28;20078;-70
2021/07/31 08:15:48;;;;;;;16.08;6.68;;;;;;;15.68;100.00;100821.56;4978385;28;20148;-68
2021/07/31 08:18:16;;;;;;;11.95;5.40;;;;;;;15.64;100.00;100823.56;4982271;28;20069;-69
2021/07/31 08:20:43;;;;;;;13.85;5.03;;;;;;;15.60;100.00;100826.50;4979698;28;20472;-69
2021/07/31 08:23:11;;;;;;;11.88;5.13;;;;;;;15.71;100.00;100826.78;4981130;28;20132;-70
2021/07/31 08:25:39;;;;;;;12.10;5.78;;;;;;;15.86;100.00;100827.81;4982579;28;20085;-71
2021/07/31 08:28:08;;;;;;;11.60;5.40;;;;;;;15.93;100.00;100831.91;4980899;28;20104;-72
2021/07/31 08:30:36;;;;;;;12.55;6.57;;;;;;;16.99;98.44;100815.16;4982185;28;20165;-72
2021/07/31 08:33:04;;;;;;;12.35;6.07;;;;;;;17.20;98.57;100824.72;4978355;28;20070;-72
2021/07/31 08:35:31;;;;;;;13.30;5.90;;;;;;;17.53;97.34;100829.91;4980796;28;20070;-72
2021/07/31 08:38:02;;;;;;;16.77;6.35;;;;;;;17.99;97.85;100831.63;4981346;28;20097;-73
2021/07/31 08:40:30;;;;;;;14.52;6.60;;;;;;;18.18;96.16;100831.31;4978334;28;20066;-72
2021/07/31 08:42:58;;;;;;;13.15;6.10;;;;;;;17.51;94.40;100832.69;4982544;28;20116;-73
2021/07/31 08:45:27;;;;;;;15.00;6.85;;;;;;;17.68;94.08;100839.75;4979829;28;20278;-74
2021/07/31 08:47:57;;;;;;;12.52;5.78;;;;;;;17.61;93.57;100837.56;4978391;28;20453;-73
2021/07/31 08:50:26;;;;;;;14.05;6.25;;;;;;;17.82;91.55;100849.69;4985471;28;20437;-73
2021/07/31 08:52:57;;;;;;;14.02;6.57;;;;;;;17.30;92.36;100845.69;4978446;28;20054;-73
2021/07/31 08:55:24;;;;;;;11.70;6.10;;;;;;;16.97;93.05;100844.03;4982589;28;20072;-71
2021/07/31 08:57:52;;;;;;;14.57;6.40;;;;;;;17.05;93.54;100850.78;4977308;28;20070;-71
2021/07/31 09:00:21;;;;;;;11.23;5.97;;;;;;;17.05;93.40;100864.28;4981284;28;20152;-71
2021/07/31 09:02:50;;;;;;;13.52;5.50;;;;;;;17.24;92.69;100861.34;4981340;28;20058;-70
2021/07/31 09:05:30;;;;;;;12.00;6.22;;;;;;;17.06;92.03;100866.00;4979041;28;20070;-70
2021/07/31 09:08:02;;;;;;;12.60;5.93;;;;;;;17.10;92.35;100875.66;4983463;28;20089;-70
2021/07/31 09:10:32;;;;;;;15.70;6.28;;;;;;;17.24;89.25;100866.75;4977026;28;20097;-70
2021/07/31 09:13:02;;;;;;;11.73;5.60;;;;;;;17.32;91.78;100869.84;4980952;28;20543;-70
2021/07/31 09:15:33;;;;;;;13.63;5.75;;;;;;;17.41;91.80;100880.06;4977227;28;20070;-70
2021/07/31 09:18:30;;;;;;;14.55;7.50;;;;;;;17.82;89.11;100876.69;4980204;28;20491;-70
2021/07/31 09:21:01;;;;;;;12.90;6.15;;;;;;;17.94;89.44;100879.63;4978902;28;20125;-71
2021/07/31 09:23:37;;;;;;;12.82;6.22;;;;;;;17.52;88.50;100872.22;4978518;28;20070;-70
2021/07/31 09:26:06;;;;;;;13.18;5.88;;;;;;;17.45;88.05;100884.34;4980518;28;20046;-72
2021/07/31 09:28:38;;;;;;;10.88;5.40;;;;;;;17.27;87.96;100888.13;4977249;28;20062;-72
2021/07/31 09:31:06;;;;;;;15.98;6.07;;;;;;;17.55;89.06;100888.22;4979837;28;20070;-71
2021/07/31 09:33:35;;;;;;;11.25;5.88;;;;;;;17.62;85.64;100893.22;4981963;28;20105;-71
2021/07/31 09:36:04;;;;;;;11.23;5.88;;;;;;;17.68;87.59;100895.56;4981642;28;20204;-69
2021/07/31 09:38:36;;;;;;;13.55;6.15;;;;;;;17.60;86.90;100904.09;4984725;28;20062;-72
2021/07/31 09:41:28;;;;;;;12.93;6.10;;;;;;;17.78;86.89;100898.56;4978088;28;20058;-69
2021/07/31 09:44:04;;;;;;;9.48;5.78;;;;;;;17.89;85.72;100910.47;4985313;28;20321;-72
2021/07/31 09:46:35;;;;;;;12.05;5.88;;;;;;;18.32;84.10;100909.63;4979372;28;20609;-71
2021/07/31 09:49:06;;;;;;;10.95;5.18;;;;;;;17.97;84.13;100901.03;4983135;28;20070;-71
2021/07/31 09:51:39;;;;;;;12.80;5.90;;;;;;;18.03;84.50;100906.03;4978366;28;20078;-71
2021/07/31 09:54:10;;;;;;;11.10;5.10;;;;;;;18.19;82.22;100908.66;4982682;28;20069;-72
2021/07/31 09:56:44;;;;;;;11.90;5.05;;;;;;;18.81;81.94;100913.69;4986030;28;20046;-69
2021/07/31 09:59:13;;;;;;;14.55;5.75;;;;;;;19.56;77.96;100908.69;4984434;28;20069;-72
2021/07/31 10:01:46;;;;;;;12.02;5.28;;;;;;;19.56;77.27;100907.78;4982216;28;20058;-72
2021/07/31 10:04:16;;;;;;;;;;;;;;;19.30;76.19;100915.00;4984411;28;20062;-70
2021/07/31 10:06:44;;;;;;;12.43;5.13;;;;;;;19.45;76.04;100918.50;4982462;28;19964;-73
2021/07/31 10:09:13;;;;;;;8.05;4.05;;;;;;;19.59;73.85;100921.13;4982368;28;20144;-74
2021/07/31 10:11:44;;;;;;;8.98;4.70;;;;;;;19.28;73.73;100920.50;4984733;28;20069;-72
2021/07/31 10:14:13;;;;;;;8.75;4.40;;;;;;;19.39;73.41;100922.47;4980825;28;20062;-74
2021/07/31 10:16:47;;;;;;;9.27;4.60;;;;;;;19.61;74.53;100921.88;4982239;28;20638;-72
2021/07/31 10:19:18;;;;;;;9.38;4.40;;;;;;;19.70;73.38;100925.78;4982104;28;20072;-73
2021/07/31 10:21:48;;;;;;;9.27;4.95;;;;;;;20.27;73.49;100920.00;4979085;28;20067;-73
2021/07/31 10:24:16;;;;;;;8.32;4.35;;;;;;;20.29;72.81;100928.88;4981575;28;20054;-72
2021/07/31 10:27:19;;;;;;;12.95;5.80;;;;;;;20.56;72.17;100918.88;4981185;28;20136;-74
2021/07/31 10:29:48;;;;;;;8.07;4.82;;;;;;;21.19;71.27;100923.22;4979668;28;20062;-74
2021/07/31 10:32:37;;;;;;;6.40;4.13;;;;;;;21.27;69.46;100926.25;4982798;28;20073;-74
2021/07/31 10:35:08;;;;;;;9.88;4.20;;;;;;;20.92;68.40;100925.31;4980453;28;20070;-74
2021/07/31 10:37:45;;;;;;;7.75;4.13;;;;;;;20.65;71.94;100937.19;4982435;28;20121;-74
2021/07/31 10:40:46;;;;;;;9.73;4.75;;;;;;;20.13;71.35;100937.22;4985352;28;20340;-75
2021/07/31 10:43:15;;;;;;;9.65;4.45;;;;;;;19.74;72.72;100938.16;4981239;28;20066;-74
2021/07/31 10:45:43;;;;;;;7.03;3.78;;;;;;;19.89;72.96;100947.94;4982144;28;20058;-74
2021/07/31 10:48:35;;;;;;;9.82;4.60;;;;;;;20.56;69.58;100957.69;4979421;28;20076;-75
2021/07/31 10:51:05;;;;;;;7.40;4.32;;;;;;;21.19;67.59;100944.94;4983380;28;20066;-74
2021/07/31 10:53:51;;;;;;;11.88;4.65;;;;;;;21.57;65.84;100960.22;4981341;28;20090;-72
2021/07/31 10:56:19;;;;;;;9.70;4.38;;;;;;;20.92;68.66;100947.88;4981522;28;20343;-74
2021/07/31 10:59:19;;;;;;;8.55;4.32;;;;;;;20.35;67.99;100957.41;4980736;28;20066;-72
2021/07/31 11:01:49;;;;;;;8.43;4.80;;;;;;;20.23;69.77;100960.97;4982956;28;20519;-73
2021/07/31 11:04:54;;;;;;;7.35;4.03;;;;;;;20.50;68.94;100971.69;4980774;28;21069;-73
2021/07/31 11:07:27;;;;;;;8.73;4.65;;;;;;;20.16;69.37;100968.66;4978665;28;20097;-72
2021/07/31 11:10:34;;;;;;;8.27;4.45;;;;;;;20.01;70.49;100967.91;4983268;28;21433;-72
2021/07/31 11:13:04;;;;;;;8.57;4.30;;;;;;;19.69;71.21;100970.94;4982262;28;20504;-72
2021/07/31 11:15:31;;;;;;;7.38;4.28;;;;;;;19.45;71.81;100978.91;4982895;28;20402;-71
2021/07/31 11:18:02;;;;;;;6.50;4.47;;;;;;;19.67;71.03;100989.13;4977567;28;20077;-71
2021/07/31 11:20:33;;;;;;;8.07;3.95;;;;;;;19.74;70.75;100984.19;4982725;28;20335;-72
2021/07/31 11:23:09;;;;;;;8.90;4.15;;;;;;;20.86;68.64;100987.16;4980638;28;20077;-74
2021/07/31 11:25:38;;;;;;;7.55;4.50;;;;;;;20.35;67.39;100989.91;4978757;28;20469;-72
2021/07/31 11:28:10;;;;;;;8.63;4.25;;;;;;;19.88;69.21;100989.53;4982250;28;20214;-71
2021/07/31 11:30:41;;;;;;;8.48;3.80;;;;;;;19.93;69.00;100997.34;4981870;28;20065;-73
2021/07/31 11:33:20;;;;;;;7.93;3.85;;;;;;;19.21;74.09;100998.50;4980959;28;20449;-74